createdAt,value
2023-01-29T00:02:29.296Z,8.90
2023-01-29T00:04:59.054Z,8.27
2023-01-29T00:07:27.511Z,8.77
2023-01-29T00:09:55.456Z,8.83
2023-01-29T00:12:23.623Z,7.93
2023-01-29T00:14:51.837Z,8.57
2023-01-29T00:17:19.890Z,8.73
2023-01-29T00:19:49.539Z,8.07
2023-01-29T00:22:17.745Z,8.47
2023-01-29T00:24:45.877Z,7.77
2023-01-29T00:27:13.790Z,8.77
2023-01-29T00:29:42.118Z,7.95
2023-01-29T00:32:10.317Z,7.20
2023-01-29T00:34:38.714Z,7.93
2023-01-29T00:37:09.473Z,7.90
2023-01-29T00:39:47.897Z,8.27
2023-01-29T00:42:34.105Z,10.50
2023-01-29T00:45:02.270Z,8.10
2023-01-29T00:47:34.656Z,7.73
2023-01-29T00:50:03.231Z,8.50
2023-01-29T00:52:33.140Z,8.13
2023-01-29T00:55:02.074Z,8.02
2023-01-29T00:57:32.029Z,8.40
2023-01-29T01:00:00.178Z,8.18
2023-01-29T01:02:46.967Z,8.90
2023-01-29T01:05:18.889Z,8.25
2023-01-29T01:07:50.382Z,7.47
2023-01-29T01:10:24.207Z,7.85
2023-01-29T01:12:56.693Z,8.85
2023-01-29T01:15:26.276Z,7.10
2023-01-29T01:17:55.609Z,8.80
2023-01-29T01:20:23.759Z,8.38
2023-01-29T01:22:54.518Z,9.23
2023-01-29T01:25:22.891Z,9.23
2023-01-29T01:27:54.353Z,9.48
2023-01-29T01:30:22.952Z,9.10
2023-01-29T01:32:51.265Z,8.35
2023-01-29T01:35:20.243Z,8.93
2023-01-29T01:37:48.696Z,8.93
2023-01-29T01:40:20.413Z,8.95
2023-01-29T01:42:50.894Z,9.65
2023-01-29T01:45:26.209Z,8.60
2023-01-29T01:47:58.301Z,9.23
2023-01-29T01:50:31.005Z,9.82
2023-01-29T01:53:03.843Z,10.32
2023-01-29T01:55:35.334Z,9.15
2023-01-29T01:58:10.119Z,9.65
2023-01-29T02:00:38.452Z,9.55
2023-01-29T02:03:26.371Z,9.60
2023-01-29T02:06:14.048Z,9.80
2023-01-29T02:09:06.435Z,9.57
2023-01-29T02:11:35.787Z,8.43
2023-01-29T02:14:04.065Z,9.80
2023-01-29T02:16:32.499Z,10.07
2023-01-29T02:19:00.609Z,8.98
2023-01-29T02:21:51.401Z,9.45
2023-01-29T02:24:52.550Z,9.93
2023-01-29T02:27:25.941Z,9.63
2023-01-29T02:30:03.897Z,10.30
2023-01-29T02:32:54.820Z,9.40
2023-01-29T02:35:32.001Z,9.32
2023-01-29T02:38:13.387Z,9.35
2023-01-29T02:40:47.035Z,9.35
2023-01-29T02:43:29.830Z,9.00
2023-01-29T02:46:06.731Z,7.72
2023-01-29T02:48:43.284Z,9.55
2023-01-29T02:51:20.282Z,9.30
2023-01-29T02:53:56.039Z,8.65
2023-01-29T02:56:31.326Z,8.68
2023-01-29T02:59:04.523Z,9.93
2023-01-29T03:01:40.001Z,9.23
2023-01-29T03:04:13.055Z,9.82
2023-01-29T03:06:45.095Z,9.02
2023-01-29T03:09:21.302Z,8.13
2023-01-29T03:11:54.015Z,8.40
2023-01-29T03:14:49.624Z,9.02
2023-01-29T03:17:21.310Z,8.70
2023-01-29T03:19:51.073Z,7.78
2023-01-29T03:22:21.975Z,8.52
2023-01-29T03:25:11.370Z,9.07
2023-01-29T03:28:00.423Z,9.50
2023-01-29T03:30:49.926Z,9.38
2023-01-29T03:33:22.514Z,8.65
2023-01-29T03:35:56.881Z,9.45
2023-01-29T03:38:29.562Z,9.30
2023-01-29T03:41:04.686Z,9.95
2023-01-29T03:43:38.012Z,9.38
2023-01-29T03:46:11.809Z,8.60
2023-01-29T03:48:48.197Z,8.65
2023-01-29T03:51:28.109Z,8.80
2023-01-29T03:54:05.619Z,8.43
2023-01-29T03:56:44.709Z,8.35
2023-01-29T03:59:20.801Z,8.10
2023-01-29T04:01:53.123Z,9.55
2023-01-29T04:04:26.355Z,8.88
2023-01-29T04:06:58.865Z,10.38
2023-01-29T04:09:32.679Z,9.73
2023-01-29T04:12:05.749Z,9.80
2023-01-29T04:14:34.580Z,8.82
2023-01-29T04:17:09.446Z,10.15
2023-01-29T04:19:39.777Z,8.82
2023-01-29T04:22:14.343Z,10.85
2023-01-29T04:24:43.594Z,10.15
2023-01-29T04:27:25.329Z,10.80
2023-01-29T04:30:09.260Z,9.43
2023-01-29T04:32:51.947Z,8.52
2023-01-29T04:35:29.966Z,9.02
2023-01-29T04:38:08.815Z,9.30
2023-01-29T04:40:47.527Z,8.57
2023-01-29T04:43:20.642Z,9.13
2023-01-29T04:46:01.083Z,9.77
2023-01-29T04:48:34.048Z,9.98
2023-01-29T04:51:09.638Z,11.20
2023-01-29T04:53:42.837Z,10.80
2023-01-29T04:56:18.915Z,10.40
2023-01-29T04:58:51.374Z,9.55
2023-01-29T05:01:22.465Z,9.90
2023-01-29T05:03:55.385Z,9.85
2023-01-29T05:06:26.544Z,9.95
2023-01-29T05:08:56.154Z,10.48
2023-01-29T05:11:25.910Z,9.48
2023-01-29T05:13:54.525Z,10.45
2023-01-29T05:16:27.344Z,9.70
2023-01-29T05:18:56.448Z,10.38
2023-01-29T05:21:28.889Z,10.48
2023-01-29T05:24:08.771Z,10.48
2023-01-29T05:26:54.544Z,9.55
2023-01-29T05:29:23.159Z,9.60
2023-01-29T05:31:51.617Z,10.32
2023-01-29T05:34:20.120Z,9.77
2023-01-29T05:36:49.576Z,10.25
2023-01-29T05:39:18.160Z,11.18
2023-01-29T05:41:46.799Z,9.90
2023-01-29T05:44:15.312Z,9.43
2023-01-29T05:46:43.857Z,10.50
2023-01-29T05:49:12.493Z,9.32
2023-01-29T05:51:40.513Z,9.80
2023-01-29T05:54:12.554Z,10.00
2023-01-29T05:56:40.675Z,10.15
2023-01-29T05:59:08.582Z,9.70
2023-01-29T06:01:36.993Z,9.88
2023-01-29T06:04:05.063Z,10.32
2023-01-29T06:06:33.003Z,10.10
2023-01-29T06:09:01.085Z,10.45
2023-01-29T06:11:30.375Z,9.55
2023-01-29T06:13:58.551Z,9.25
2023-01-29T06:16:26.900Z,10.20
2023-01-29T06:18:55.138Z,9.32
2023-01-29T06:21:23.133Z,10.73
2023-01-29T06:23:54.161Z,11.65
2023-01-29T06:26:22.513Z,11.75
2023-01-29T06:28:52.428Z,10.82
2023-01-29T06:31:36.889Z,11.63
2023-01-29T06:34:06.160Z,10.55
2023-01-29T06:36:34.700Z,10.90
2023-01-29T06:39:02.676Z,10.30
2023-01-29T06:41:31.046Z,10.40
2023-01-29T06:44:00.929Z,10.23
2023-01-29T06:46:28.906Z,9.70
2023-01-29T06:48:59.274Z,9.05
2023-01-29T06:51:28.092Z,10.65
2023-01-29T06:53:57.076Z,11.52
2023-01-29T06:56:25.879Z,11.52
2023-01-29T06:58:54.639Z,11.60
2023-01-29T07:01:35.700Z,10.52
2023-01-29T07:04:04.888Z,12.30
2023-01-29T07:06:33.519Z,10.90
2023-01-29T07:09:01.537Z,12.10
2023-01-29T07:11:29.824Z,11.80
2023-01-29T07:13:58.047Z,12.73
2023-01-29T07:16:28.172Z,13.50
2023-01-29T07:18:56.937Z,12.10
2023-01-29T07:21:25.136Z,11.52
2023-01-29T07:23:53.099Z,11.25
2023-01-29T07:26:21.053Z,11.45
2023-01-29T07:28:48.956Z,13.02
2023-01-29T07:31:17.232Z,13.70
2023-01-29T07:33:46.865Z,14.45
2023-01-29T07:36:17.638Z,12.18
2023-01-29T07:38:45.528Z,12.93
2023-01-29T07:41:14.057Z,17.13
2023-01-29T07:43:42.602Z,16.50
2023-01-29T07:46:10.791Z,13.85
2023-01-29T07:48:39.191Z,13.13
2023-01-29T07:51:09.537Z,11.35
2023-01-29T07:53:38.333Z,11.70
2023-01-29T07:56:06.916Z,12.57
2023-01-29T07:58:36.757Z,12.40
2023-01-29T08:01:07.521Z,12.63
2023-01-29T08:03:36.371Z,11.40
2023-01-29T08:06:05.326Z,11.32
2023-01-29T08:08:35.104Z,11.40
2023-01-29T08:11:04.098Z,12.10
2023-01-29T08:13:32.075Z,11.25
2023-01-29T08:16:03.956Z,11.80
2023-01-29T08:18:32.541Z,12.48
2023-01-29T08:21:02.049Z,13.57
2023-01-29T08:23:30.962Z,13.13
2023-01-29T08:26:00.474Z,13.80
2023-01-29T08:28:28.909Z,12.55
2023-01-29T08:30:57.643Z,12.70
2023-01-29T08:33:38.701Z,13.55
2023-01-29T08:36:08.749Z,13.00
2023-01-29T08:38:37.502Z,13.88
2023-01-29T08:41:07.316Z,13.43
2023-01-29T08:43:37.337Z,12.80
2023-01-29T08:46:06.125Z,12.02
2023-01-29T08:48:34.345Z,11.88
2023-01-29T08:51:04.911Z,13.32
2023-01-29T08:53:35.326Z,12.23
2023-01-29T08:56:03.302Z,10.90
2023-01-29T08:58:32.992Z,12.27
2023-01-29T09:01:08.091Z,12.98
2023-01-29T09:03:41.280Z,12.35
2023-01-29T09:06:11.847Z,12.27
2023-01-29T09:08:40.159Z,11.23
2023-01-29T09:11:12.396Z,12.00
2023-01-29T09:13:42.083Z,12.00
2023-01-29T09:16:11.588Z,12.15
2023-01-29T09:18:39.895Z,12.20
2023-01-29T09:21:07.960Z,12.25
2023-01-29T09:23:36.221Z,13.32
2023-01-29T09:26:04.678Z,11.77
2023-01-29T09:28:32.653Z,11.70
2023-01-29T09:31:04.292Z,11.13
2023-01-29T09:33:32.553Z,11.18
2023-01-29T09:36:00.575Z,11.60
2023-01-29T09:38:29.116Z,12.40
2023-01-29T09:41:04.852Z,11.25
2023-01-29T09:43:44.895Z,11.13
2023-01-29T09:46:20.478Z,10.18
2023-01-29T09:48:54.271Z,11.02
2023-01-29T09:51:31.625Z,9.48
2023-01-29T09:54:08.976Z,10.05
2023-01-29T09:56:36.915Z,11.18
2023-01-29T09:59:04.873Z,10.40
2023-01-29T10:01:41.968Z,9.00
2023-01-29T10:04:30.261Z,11.18
2023-01-29T10:07:16.573Z,10.50
2023-01-29T10:09:58.422Z,10.23
2023-01-29T10:12:41.239Z,10.98
2023-01-29T10:15:23.383Z,10.77
2023-01-29T10:18:10.003Z,10.63
2023-01-29T10:21:06.823Z,11.45
2023-01-29T10:23:38.277Z,10.70
2023-01-29T10:26:10.755Z,11.52
2023-01-29T10:28:46.325Z,12.02
2023-01-29T10:31:19.775Z,13.48
2023-01-29T10:34:02.421Z,13.90
2023-01-29T10:36:42.944Z,13.35
2023-01-29T10:42:19.803Z,12.02
2023-01-29T10:45:00.171Z,11.82
2023-01-29T10:47:54.155Z,12.95
2023-01-29T10:50:48.419Z,10.95
2023-01-29T10:57:18.319Z,11.15
2023-01-29T11:00:18.629Z,11.88
2023-01-29T11:02:49.320Z,11.73
2023-01-29T11:05:35.648Z,10.77
2023-01-29T11:08:11.571Z,11.93
2023-01-29T11:10:47.056Z,11.80
2023-01-29T11:13:17.494Z,11.90
2023-01-29T11:15:45.722Z,12.20
2023-01-29T11:18:16.155Z,11.77
2023-01-29T11:20:47.956Z,12.40
2023-01-29T11:23:28.942Z,12.48
2023-01-29T11:25:59.486Z,13.60
2023-01-29T11:28:38.123Z,12.30
2023-01-29T11:31:18.261Z,12.63
2023-01-29T11:33:47.732Z,13.38
2023-01-29T11:36:46.834Z,12.10
2023-01-29T11:39:23.871Z,13.75
2023-01-29T11:42:01.958Z,14.07
2023-01-29T11:44:46.672Z,13.00
2023-01-29T11:47:20.668Z,12.85
2023-01-29T11:50:12.404Z,14.00
2023-01-29T11:53:04.967Z,15.30
2023-01-29T11:55:50.293Z,13.50
2023-01-29T11:58:43.822Z,13.70
2023-01-29T12:01:58.594Z,14.65
2023-01-29T12:04:28.439Z,14.27
2023-01-29T12:06:56.974Z,14.75
2023-01-29T12:09:29.046Z,12.48
2023-01-29T12:11:57.279Z,13.75
2023-01-29T12:15:20.005Z,13.52
2023-01-29T12:17:26.933Z,14.88
2023-01-29T12:19:59.044Z,14.07
2023-01-29T12:22:45.606Z,13.20
2023-01-29T12:25:24.292Z,14.70
2023-01-29T12:28:03.871Z,15.82
2023-01-29T12:30:47.691Z,16.77
2023-01-29T12:33:22.540Z,14.50
2023-01-29T12:35:58.181Z,14.68
2023-01-29T12:38:26.777Z,14.00
2023-01-29T12:41:10.037Z,15.20
2023-01-29T12:43:41.595Z,14.43
2023-01-29T12:46:19.841Z,14.57
2023-01-29T12:48:49.788Z,14.50
2023-01-29T12:51:24.292Z,14.02
2023-01-29T12:53:58.616Z,13.77
2023-01-29T12:56:37.409Z,15.02
2023-01-29T12:59:20.493Z,15.07
2023-01-29T13:02:01.619Z,13.50
2023-01-29T13:04:43.753Z,13.82
2023-01-29T13:07:19.293Z,13.40
2023-01-29T13:09:52.393Z,14.48
2023-01-29T13:12:39.018Z,14.05
2023-01-29T13:15:23.523Z,15.98
2023-01-29T13:18:09.284Z,15.32
2023-01-29T13:20:39.000Z,13.85
2023-01-29T13:23:32.335Z,16.02
2023-01-29T13:26:05.722Z,16.27
2023-01-29T13:28:41.161Z,17.15
2023-01-29T13:34:26.403Z,17.20
2023-01-29T13:36:57.473Z,14.50
2023-01-29T13:39:30.036Z,17.08
2023-01-29T13:42:00.729Z,16.08
2023-01-29T13:44:35.674Z,15.55
2023-01-29T13:50:07.970Z,16.02
2023-01-29T13:52:40.932Z,15.48
2023-01-29T13:55:24.386Z,15.27
2023-01-29T13:57:56.166Z,14.77
2023-01-29T14:00:54.181Z,16.08
2023-01-29T14:04:04.663Z,15.63
2023-01-29T14:06:52.117Z,15.63
2023-01-29T14:10:00.171Z,15.55
2023-01-29T14:12:39.379Z,15.00
2023-01-29T14:15:27.349Z,15.45
2023-01-29T14:17:59.839Z,14.50
2023-01-29T14:20:45.083Z,15.20
2023-01-29T14:23:26.139Z,15.88
2023-01-29T14:25:54.535Z,16.15
2023-01-29T14:28:25.361Z,18.40
2023-01-29T14:30:53.831Z,15.13
2023-01-29T14:33:34.416Z,16.40
2023-01-29T14:36:08.219Z,15.07
2023-01-29T14:38:37.029Z,16.13
2023-01-29T14:41:17.164Z,16.23
2023-01-29T14:43:45.242Z,17.10
2023-01-29T14:46:45.829Z,14.55
2023-01-29T14:49:14.115Z,16.10
2023-01-29T14:51:46.682Z,14.20
2023-01-29T14:54:24.136Z,15.32
2023-01-29T14:57:00.653Z,13.90
2023-01-29T14:59:35.714Z,13.38
2023-01-29T15:02:14.571Z,14.20
2023-01-29T15:04:47.981Z,14.48
2023-01-29T15:07:37.804Z,13.77
2023-01-29T15:10:22.437Z,14.38
2023-01-29T15:12:58.241Z,15.60
2023-01-29T15:15:35.594Z,15.55
2023-01-29T15:18:09.472Z,15.02
2023-01-29T15:20:39.642Z,13.65
2023-01-29T15:23:27.100Z,14.32
2023-01-29T15:25:57.938Z,15.65
2023-01-29T15:28:26.578Z,14.63
2023-01-29T15:30:59.273Z,15.82
2023-01-29T15:33:32.738Z,14.13
2023-01-29T15:36:07.994Z,14.82
2023-01-29T15:38:37.926Z,14.95
2023-01-29T15:41:19.522Z,14.63
2023-01-29T15:43:56.565Z,15.77
2023-01-29T15:46:28.742Z,17.70
2023-01-29T15:49:03.600Z,16.38
2023-01-29T15:54:32.528Z,14.45
2023-01-29T15:57:02.319Z,16.30
2023-01-29T15:59:35.487Z,17.25
2023-01-29T16:02:28.733Z,18.85
2023-01-29T16:04:57.880Z,17.27
2023-01-29T16:07:26.480Z,17.65
2023-01-29T16:09:57.801Z,17.80
2023-01-29T16:12:26.667Z,17.38
2023-01-29T16:14:54.946Z,18.00
2023-01-29T16:17:28.620Z,18.50
2023-01-29T16:19:57.865Z,20.30
2023-01-29T16:22:27.440Z,19.05
2023-01-29T16:24:59.231Z,20.55
2023-01-29T16:27:27.941Z,19.60
2023-01-29T16:29:55.951Z,20.65
2023-01-29T16:32:23.996Z,18.38
2023-01-29T16:34:58.543Z,17.48
2023-01-29T16:37:30.075Z,17.35
2023-01-29T16:40:00.604Z,18.92
2023-01-29T16:42:30.896Z,19.13
2023-01-29T16:45:02.276Z,17.30
2023-01-29T16:47:33.457Z,16.70
2023-01-29T16:50:05.522Z,17.25
2023-01-29T16:52:35.843Z,19.15
2023-01-29T16:55:22.107Z,21.08
2023-01-29T16:57:54.790Z,25.85
2023-01-29T17:00:37.396Z,20.58
2023-01-29T17:03:07.825Z,19.85
2023-01-29T17:05:39.688Z,36.33
2023-01-29T17:08:09.249Z,37.45
2023-01-29T17:10:39.184Z,31.35
2023-01-29T17:13:10.455Z,24.63
2023-01-29T17:15:47.337Z,23.95
2023-01-29T17:18:19.494Z,21.60
2023-01-29T17:20:48.293Z,20.30
2023-01-29T17:23:16.437Z,18.42
2023-01-29T17:25:49.232Z,18.90
2023-01-29T17:28:18.749Z,18.35
2023-01-29T17:31:00.349Z,18.67
2023-01-29T17:33:33.902Z,17.95
2023-01-29T17:36:02.260Z,17.42
2023-01-29T17:38:31.284Z,16.58
2023-01-29T17:41:06.116Z,18.33
2023-01-29T17:43:34.116Z,18.08
2023-01-29T17:46:02.131Z,18.92
2023-01-29T17:48:32.129Z,23.77
2023-01-29T17:51:03.741Z,24.13
2023-01-29T17:53:44.812Z,20.95
2023-01-29T17:56:19.618Z,20.35
2023-01-29T17:58:47.725Z,20.80
2023-01-29T18:01:15.620Z,20.65
2023-01-29T18:03:43.921Z,21.60
2023-01-29T18:06:18.915Z,19.38
2023-01-29T18:08:47.303Z,19.17
2023-01-29T18:11:15.323Z,19.85
2023-01-29T18:13:45.029Z,20.85
2023-01-29T18:16:13.456Z,21.65
2023-01-29T18:18:41.456Z,21.50
2023-01-29T18:21:10.621Z,21.63
2023-01-29T18:23:38.909Z,19.08
2023-01-29T18:26:07.580Z,18.50
2023-01-29T18:28:35.507Z,19.05
2023-01-29T18:31:06.047Z,18.00
2023-01-29T18:33:34.399Z,18.77
2023-01-29T18:36:04.892Z,18.15
2023-01-29T18:38:33.788Z,19.48
2023-01-29T18:41:06.602Z,18.15
2023-01-29T18:43:34.980Z,19.00
2023-01-29T18:46:04.738Z,18.02
2023-01-29T18:48:32.780Z,18.58
2023-01-29T18:51:01.334Z,19.92
2023-01-29T18:53:29.722Z,18.33
2023-01-29T18:55:59.053Z,17.93
2023-01-29T18:58:36.374Z,16.93
2023-01-29T19:01:11.795Z,19.57
2023-01-29T19:03:40.674Z,19.05
2023-01-29T19:06:11.197Z,20.73
2023-01-29T19:08:39.620Z,20.08
2023-01-29T19:11:09.421Z,23.40
2023-01-29T19:13:38.504Z,21.33
2023-01-29T19:16:10.962Z,21.20
2023-01-29T19:18:39.451Z,20.77
2023-01-29T19:21:08.921Z,22.57
2023-01-29T19:23:37.465Z,20.90
2023-01-29T19:26:06.072Z,19.30
2023-01-29T19:28:34.906Z,18.73
2023-01-29T19:31:04.362Z,22.83
2023-01-29T19:33:34.922Z,24.27
2023-01-29T19:36:03.736Z,23.83
2023-01-29T19:38:33.778Z,22.70
2023-01-29T19:41:05.913Z,21.90
2023-01-29T19:43:45.589Z,20.43
2023-01-29T19:46:39.823Z,19.13
2023-01-29T19:49:10.789Z,23.80
2023-01-29T19:51:40.917Z,18.50
2023-01-29T19:54:11.020Z,18.83
2023-01-29T19:56:42.712Z,18.27
2023-01-29T19:59:13.402Z,19.10
2023-01-29T20:01:43.665Z,18.83
2023-01-29T20:04:19.349Z,19.43
2023-01-29T20:06:47.555Z,19.00
2023-01-29T20:09:17.803Z,16.60
2023-01-29T20:11:48.132Z,19.77
2023-01-29T20:14:18.148Z,20.80
2023-01-29T20:16:47.898Z,19.67
2023-01-29T20:19:20.142Z,21.93
2023-01-29T20:21:52.638Z,25.73
2023-01-29T20:24:21.154Z,23.63
2023-01-29T20:26:49.334Z,28.37
2023-01-29T20:29:18.808Z,25.57
2023-01-29T20:31:48.254Z,22.90
2023-01-29T20:34:19.491Z,22.80
2023-01-29T20:36:47.829Z,22.80
2023-01-29T20:39:16.049Z,21.03
2023-01-29T20:41:47.546Z,19.50
2023-01-29T20:44:16.201Z,19.13
2023-01-29T20:46:44.771Z,17.57
2023-01-29T20:49:13.539Z,16.80
2023-01-29T20:51:44.382Z,17.13
2023-01-29T20:54:15.578Z,16.13
2023-01-29T20:56:45.317Z,15.60
2023-01-29T20:59:15.295Z,22.47
2023-01-29T21:01:44.082Z,21.47
2023-01-29T21:04:12.048Z,22.07
2023-01-29T21:06:41.428Z,21.87
2023-01-29T21:09:10.883Z,22.47
2023-01-29T21:11:38.877Z,20.73
2023-01-29T21:14:07.627Z,18.13
2023-01-29T21:16:35.885Z,25.20
2023-01-29T21:19:04.146Z,19.87
2023-01-29T21:21:32.509Z,23.53
2023-01-29T21:24:00.595Z,23.10
2023-01-29T21:26:30.098Z,22.60
2023-01-29T21:28:58.359Z,24.20
2023-01-29T21:31:26.499Z,25.03
2023-01-29T21:33:54.494Z,26.27
2023-01-29T21:36:23.093Z,25.87
2023-01-29T21:38:51.359Z,24.23
2023-01-29T21:41:19.568Z,25.13
2023-01-29T21:43:48.147Z,24.03
2023-01-29T21:46:16.194Z,21.77
2023-01-29T21:48:44.588Z,21.33
2023-01-29T21:51:12.532Z,29.87
2023-01-29T21:53:40.482Z,26.33
2023-01-29T21:56:09.536Z,22.47
2023-01-29T21:58:37.465Z,19.97
2023-01-29T22:01:36.403Z,18.53
2023-01-29T22:03:55.771Z,18.40
2023-01-29T22:06:24.069Z,21.60
2023-01-29T22:08:52.240Z,20.50
2023-01-29T22:11:20.713Z,19.37
2023-01-29T22:13:48.731Z,19.07
2023-01-29T22:16:17.979Z,18.30
2023-01-29T22:18:46.415Z,16.77
2023-01-29T22:21:14.963Z,20.37
2023-01-29T22:23:42.871Z,20.70
2023-01-29T22:26:12.114Z,19.60
2023-01-29T22:28:40.127Z,18.97
2023-01-29T22:31:08.460Z,20.80
2023-01-29T22:33:37.828Z,18.83
2023-01-29T22:36:06.806Z,19.30
2023-01-29T22:38:34.710Z,18.27
2023-01-29T22:41:04.690Z,17.57
2023-01-29T22:43:33.062Z,17.40
2023-01-29T22:46:01.056Z,16.97
2023-01-29T22:48:30.585Z,16.73
2023-01-29T22:51:11.367Z,17.37
2023-01-29T22:53:40.984Z,17.33
2023-01-29T22:56:10.024Z,17.53
2023-01-29T22:58:38.614Z,16.93
2023-01-29T23:01:06.767Z,16.27
2023-01-29T23:03:35.504Z,17.53
2023-01-29T23:06:05.919Z,17.27
2023-01-29T23:08:33.984Z,17.57
2023-01-29T23:11:14.758Z,17.20
2023-01-29T23:13:44.304Z,17.07
2023-01-29T23:16:12.922Z,18.93
2023-01-29T23:18:41.745Z,17.93
2023-01-29T23:21:12.581Z,16.23
2023-01-29T23:23:40.872Z,16.00
2023-01-29T23:26:27.035Z,15.93
2023-01-29T23:28:55.656Z,15.63
2023-01-29T23:31:24.008Z,15.73
2023-01-29T23:33:52.248Z,14.70
2023-01-29T23:36:21.514Z,14.80
2023-01-29T23:38:49.360Z,16.33
2023-01-29T23:41:17.729Z,16.73
2023-01-29T23:43:46.092Z,16.07
2023-01-29T23:46:14.334Z,15.97
2023-01-29T23:48:42.750Z,15.63
2023-01-29T23:51:10.823Z,15.47
2023-01-29T23:53:40.147Z,15.57
2023-01-29T23:56:08.853Z,16.10
2023-01-29T23:58:36.709Z,16.30
